Time;durP1;ratioP1;P1;durP2;ratioP2;P2;SDS_P1;SDS_P2;PMS_P1;PMS_P2;Temp;Humidity;BMP_temperature;BMP_pressure;BME280_temperature;BME280_humidity;BME280_pressure;Samples;Min_cycle;Max_cycle;Signal;HPM_P1;HPM_P2
2022/11/19 00:05:10;;;;;;;1.45;1.35;;;;;;;16.53;86.26;100836.03;20781252;28;20100;-86
2022/11/19 00:15:12;;;;;;;1.40;1.30;;;;;;;16.51;86.22;100840.69;20748006;28;20052;-86
2022/11/19 00:25:13;;;;;;;1.30;1.20;;;;;;;16.51;86.19;100832.63;20776229;28;20053;-86
2022/11/19 00:35:15;;;;;;;1.42;1.33;;;;;;;16.43;86.24;100835.09;20745494;28;20047;-86
2022/11/19 00:45:16;;;;;;;1.20;1.10;;;;;;;16.51;86.02;100854.13;20744781;28;20103;-88
2022/11/19 00:55:17;;;;;;;1.52;1.30;;;;;;;16.50;85.95;100863.16;20740857;28;20045;-85
2022/11/19 01:05:19;;;;;;;1.67;1.58;;;;;;;16.34;85.80;100842.06;20788815;28;20041;-85
2022/11/19 01:15:20;;;;;;;1.27;1.17;;;;;;;16.50;85.87;100879.28;20746311;28;20063;-86
2022/11/19 01:25:22;;;;;;;1.33;1.23;;;;;;;16.50;85.86;100890.03;20770632;28;20139;-86
2022/11/19 01:35:23;;;;;;;1.33;1.23;;;;;;;16.50;85.87;100890.03;20787542;28;20060;-86
2022/11/19 01:45:24;;;;;;;1.33;1.23;;;;;;;16.49;85.68;100915.19;20743499;28;20118;-86
2022/11/19 01:55:27;;;;;;;1.50;1.40;;;;;;;16.49;85.64;100926.78;20738826;28;20520;-86
2022/11/19 02:05:28;;;;;;;1.58;1.48;;;;;;;16.48;85.60;100938.50;20728716;28;20124;-85
2022/11/19 02:15:51;;;;;;;1.35;1.25;;;;;;;16.21;85.45;100906.69;20746331;28;20053;-85
2022/11/19 02:26:20;;;;;;;1.50;1.40;;;;;;;16.02;85.29;100877.78;20751048;28;20061;-88
2022/11/19 02:36:27;;;;;;;1.17;1.08;;;;;;;16.17;85.49;100907.94;20755507;28;20049;-88
2022/11/19 02:46:29;;;;;;;1.30;1.20;;;;;;;16.31;85.45;100960.53;20771860;28;21663;-87
2022/11/19 02:57:06;;;;;;;1.30;1.20;;;;;;;16.47;85.26;100987.88;20781930;28;20049;-88
2022/11/19 03:07:10;;;;;;;1.38;1.27;;;;;;;16.47;85.29;100990.56;20670691;28;20525;-87
2022/11/19 03:17:16;;;;;;;0.90;0.90;;;;;;;16.44;85.03;100980.06;20731697;28;20414;-86
2022/11/19 03:27:28;;;;;;;1.30;1.20;;;;;;;16.46;84.98;100986.16;20750065;28;20128;-86
2022/11/19 03:37:30;;;;;;;0.93;0.93;;;;;;;16.47;85.12;100997.78;20801043;28;20051;-86
2022/11/19 03:47:37;;;;;;;0.93;0.90;;;;;;;16.13;85.06;100952.13;20757013;28;20049;-86
2022/11/19 03:57:38;;;;;;;1.20;1.10;;;;;;;16.45;84.81;101016.69;20805697;28;20136;-87
2022/11/19 04:07:40;;;;;;;1.13;1.02;;;;;;;16.36;84.85;101017.44;20768742;28;20060;-87
2022/11/19 04:17:41;;;;;;;1.10;1.00;;;;;;;16.46;84.68;101044.44;20785543;28;20057;-86
2022/11/19 04:27:46;;;;;;;1.00;0.95;;;;;;;16.46;84.63;101033.69;20750915;28;20053;-86
2022/11/19 04:37:47;;;;;;;1.10;1.00;;;;;;;16.46;84.67;101039.06;20738910;28;20073;-88
2022/11/19 04:47:49;;;;;;;1.05;1.00;;;;;;;16.47;84.61;101048.84;20775649;28;20041;-88
2022/11/19 04:57:52;;;;;;;0.95;0.90;;;;;;;16.45;84.23;101058.84;20768534;28;20184;-87
2022/11/19 05:07:53;;;;;;;1.75;1.00;;;;;;;16.45;84.29;101062.38;20765846;28;20069;-88
2022/11/19 05:17:55;;;;;;;0.98;0.98;;;;;;;16.46;84.33;101072.16;20764113;28;20041;-87
2022/11/19 05:27:56;;;;;;;1.13;1.02;;;;;;;16.46;84.30;101082.06;20760394;28;20061;-87
2022/11/19 05:37:58;;;;;;;1.08;1.00;;;;;;;16.46;84.05;101082.91;20767040;28;20063;-86
2022/11/19 05:47:59;;;;;;;1.05;0.93;;;;;;;16.45;83.93;101091.94;20743314;28;20136;-87
2022/11/19 05:58:01;;;;;;;0.95;0.90;;;;;;;16.45;84.19;101109.91;20783956;28;20057;-86
2022/11/19 06:08:02;;;;;;;0.82;0.82;;;;;;;16.45;84.10;101117.97;20774811;28;20045;-85
2022/11/19 06:18:04;;;;;;;1.42;0.90;;;;;;;16.34;84.00;101100.84;20759369;28;20064;-86
2022/11/19 06:28:06;;;;;;;0.65;0.65;;;;;;;16.26;84.16;101092.53;20775047;28;20448;-87
2022/11/19 06:38:07;;;;;;;1.02;0.95;;;;;;;16.45;83.95;101134.09;20792097;28;20069;-86
2022/11/19 06:48:09;;;;;;;0.95;0.90;;;;;;;16.46;83.94;101151.94;20791188;28;20053;-87
2022/11/19 06:58:10;;;;;;;0.98;0.88;;;;;;;16.45;83.97;101167.19;20799389;28;20387;-87
2022/11/19 07:08:12;;;;;;;2.65;1.08;;;;;;;16.45;83.91;101171.72;20791454;28;20049;-87
2022/11/19 07:18:13;;;;;;;0.88;0.80;;;;;;;16.31;83.67;101160.19;20803235;28;20056;-86
2022/11/19 07:28:14;;;;;;;0.80;0.80;;;;;;;16.45;83.81;101195.91;20804477;28;20091;-87
2022/11/19 07:38:16;;;;;;;0.90;0.90;;;;;;;16.35;83.73;101176.94;20786420;28;20509;-85
2022/11/19 07:48:17;;;;;;;0.75;0.75;;;;;;;16.35;83.54;101183.19;20803085;28;20057;-84
2022/11/19 07:58:18;;;;;;;0.70;0.70;;;;;;;16.30;83.38;101185.34;20788725;28;20125;-87
2022/11/19 08:08:20;;;;;;;0.80;0.80;;;;;;;16.25;83.53;101182.16;20784189;28;20064;-86
2022/11/19 08:18:21;;;;;;;1.05;0.95;;;;;;;16.46;83.41;101221.78;20801324;28;20080;-87
2022/11/19 08:28:30;;;;;;;0.98;0.93;;;;;;;16.48;83.27;101214.47;20783459;28;20119;-86
2022/11/19 08:38:32;;;;;;;0.80;0.70;;;;;;;16.49;83.47;101218.88;20799273;28;20049;-86
2022/11/19 08:48:39;;;;;;;0.70;0.68;;;;;;;16.36;83.40;101186.72;20782625;28;20053;-86
2022/11/19 08:58:40;;;;;;;0.80;0.80;;;;;;;16.40;83.33;101207.00;20784040;28;20053;-86
2022/11/19 09:08:41;;;;;;;0.80;0.80;;;;;;;16.50;83.44;101228.66;20796475;28;20068;-86
2022/11/19 09:18:43;;;;;;;0.73;0.70;;;;;;;16.50;83.32;101244.78;20796221;28;20421;-86
2022/11/19 09:28:45;;;;;;;0.65;0.65;;;;;;;16.50;83.19;101255.53;20777366;28;20053;-86
2022/11/19 09:38:47;;;;;;;0.80;0.80;;;;;;;16.50;83.27;101266.28;20760067;28;20068;-86
2022/11/19 09:48:51;;;;;;;0.77;0.77;;;;;;;16.49;83.40;101270.78;20794216;28;20095;-87
2022/11/19 09:58:54;;;;;;;1.00;0.90;;;;;;;16.50;83.27;101272.47;20775794;28;20120;-86
2022/11/19 10:09:16;;;;;;;0.88;0.80;;;;;;;16.15;82.72;101221.47;20774677;28;20045;-86
2022/11/19 10:19:32;;;;;;;1.00;0.90;;;;;;;16.50;82.85;101283.22;20775553;28;20520;-86
2022/11/19 10:29:37;;;;;;;0.85;0.80;;;;;;;16.37;82.74;101261.84;20759204;28;20045;-86
2022/11/19 10:39:47;;;;;;;0.80;0.80;;;;;;;16.40;82.63;101255.38;20791875;28;20053;-86
2022/11/19 10:49:53;;;;;;;1.00;1.00;;;;;;;16.29;82.61;101240.06;20805191;28;20103;-86
2022/11/19 10:59:54;;;;;;;1.38;0.88;;;;;;;16.50;82.47;101266.28;20806229;28;20053;-87
2022/11/19 11:09:56;;;;;;;0.70;0.70;;;;;;;16.50;82.50;101259.03;20805936;28;20073;-86
2022/11/19 11:20:00;;;;;;;1.10;0.70;;;;;;;16.50;82.47;101266.28;20788192;28;20053;-87
2022/11/19 11:30:11;;;;;;;0.70;0.70;;;;;;;16.17;82.28;101204.25;20804977;28;20124;-87
2022/11/19 11:40:19;;;;;;;0.80;0.80;;;;;;;16.50;82.16;101266.28;20786874;28;20065;-86
2022/11/19 11:50:23;;;;;;;0.70;0.70;;;;;;;16.50;82.27;101247.47;20784995;28;20566;-87
2022/11/19 12:00:35;;;;;;;0.77;0.63;;;;;;;16.50;82.13;101250.16;20785116;28;20049;-86
2022/11/19 12:10:42;;;;;;;0.80;0.80;;;;;;;16.49;82.05;101237.69;20802054;28;20803;-86
2022/11/19 12:20:51;;;;;;;0.93;0.80;;;;;;;16.32;82.17;101194.16;20783818;28;20115;-87
2022/11/19 12:31:06;;;;;;;0.70;0.70;;;;;;;16.12;81.90;101157.22;20800299;28;20505;-87
2022/11/19 12:41:23;;;;;;;0.77;0.77;;;;;;;16.43;81.87;101198.69;20781883;28;20077;-86
2022/11/19 12:51:41;;;;;;;0.90;0.70;;;;;;;16.49;81.50;101216.19;20779300;28;20152;-87
2022/11/19 13:01:47;;;;;;;0.70;0.70;;;;;;;16.34;81.88;101202.09;20751757;28;20064;-87
2022/11/19 13:11:55;;;;;;;0.70;0.60;;;;;;;16.47;81.78;101213.59;20771435;28;20563;-87
2022/11/19 13:22:09;;;;;;;0.70;0.70;;;;;;;16.50;81.80;101212.53;20755744;28;20060;-87
2022/11/19 13:32:18;;;;;;;0.70;0.70;;;;;;;16.50;81.89;101201.78;20774824;28;20049;-86
2022/11/19 13:52:45;;;;;;;0.80;0.80;;;;;;;16.48;81.66;101204.56;20750153;28;20414;-87
2022/11/19 14:02:50;;;;;;;0.85;0.80;;;;;;;16.49;81.76;101192.00;20770145;28;20103;-87
2022/11/19 14:13:04;;;;;;;0.80;0.80;;;;;;;16.26;81.69;101151.63;20767025;28;20045;-87
2022/11/19 14:33:46;;;;;;;0.90;0.80;;;;;;;16.48;81.65;101187.59;20744450;28;20060;-86
2022/11/19 14:44:08;;;;;;;0.70;0.70;;;;;;;16.49;81.67;101175.88;20787691;28;20249;-88
2022/11/19 14:54:12;;;;;;;0.77;0.77;;;;;;;16.48;81.69;101174.16;20776537;28;20045;-88
2022/11/19 15:04:14;;;;;;;0.63;0.57;;;;;;;16.41;81.54;101154.13;20785730;28;20053;-88
2022/11/19 15:14:28;;;;;;;0.70;0.63;;;;;;;16.46;81.06;101162.69;20779295;28;20335;-88
2022/11/19 15:24:44;;;;;;;0.70;0.65;;;;;;;16.47;80.84;101159.00;20797826;28;20049;-89
2022/11/19 15:34:55;;;;;;;1.17;0.70;;;;;;;16.46;80.79;101157.31;20786711;28;20052;-87
2022/11/19 15:45:14;;;;;;;;;;;;;;;16.47;81.00;101161.69;20788670;28;20049;-88
2022/11/19 15:55:18;;;;;;;0.80;0.70;;;;;;;16.18;80.83;101117.34;20733931;28;19921;-88
2022/11/19 16:05:25;;;;;;;0.65;0.60;;;;;;;16.46;80.66;101160.00;20743654;28;20053;-88
2022/11/19 16:25:47;;;;;;;1.05;0.68;;;;;;;15.93;80.60;101086.16;20773818;28;20091;-87
2022/11/19 16:35:50;;;;;;;0.73;0.73;;;;;;;16.45;80.93;101160.97;20743708;28;20540;-87
2022/11/19 16:45:54;;;;;;;0.83;0.70;;;;;;;16.45;80.75;101158.28;20758634;28;20169;-88
2022/11/19 16:55:56;;;;;;;1.15;0.65;;;;;;;16.21;80.54;101103.66;20758780;28;20772;-88
2022/11/19 17:05:58;;;;;;;0.82;0.50;;;;;;;16.34;80.61;101126.88;20771918;28;20053;-90
2022/11/19 17:16:16;;;;;;;1.00;0.77;;;;;;;16.43;80.65;101146.78;20769194;28;20049;-87
2022/11/19 17:26:24;;;;;;;1.58;0.82;;;;;;;16.36;80.69;101152.66;20730497;28;20182;-88
2022/11/19 17:36:26;;;;;;;1.25;0.80;;;;;;;16.43;80.64;101163.75;20738390;28;20131;-88
2022/11/19 17:46:28;;;;;;;1.45;0.88;;;;;;;16.14;80.70;101115.00;20755198;28;20565;-87
2022/11/19 17:56:30;;;;;;;1.25;0.90;;;;;;;16.43;80.81;101177.19;20755226;28;20053;-89
2022/11/19 18:06:32;;;;;;;1.42;0.95;;;;;;;16.43;80.64;101184.41;20760749;28;20053;-86
2022/11/19 18:16:36;;;;;;;1.30;0.80;;;;;;;16.44;80.41;101186.13;20775185;28;20049;-86
2022/11/19 18:26:37;;;;;;;3.17;0.80;;;;;;;16.44;80.60;101180.75;20787054;28;20067;-86
2022/11/19 18:36:39;;;;;;;1.23;0.82;;;;;;;16.44;80.46;101164.63;20797789;28;20501;-87
2022/11/19 18:46:41;;;;;;;1.40;0.90;;;;;;;16.22;80.45;101104.50;20788398;28;20099;-87
2022/11/19 18:56:42;;;;;;;1.75;0.90;;;;;;;16.43;80.64;101149.47;20790120;28;20681;-87
2022/11/19 19:06:44;;;;;;;1.60;0.77;;;;;;;16.43;80.48;101146.78;20776130;28;20060;-86
2022/11/19 19:16:45;;;;;;;1.80;1.10;;;;;;;16.44;80.58;101151.19;20806492;28;20061;-87
2022/11/19 19:26:46;;;;;;;1.27;1.00;;;;;;;16.42;80.40;101151.31;20805769;28;20049;-86
2022/11/19 19:36:48;;;;;;;1.92;0.88;;;;;;;16.32;80.28;101139.56;20788980;28;20505;-85
2022/11/19 19:46:54;;;;;;;2.00;0.90;;;;;;;16.24;80.34;101126.72;20800597;28;20050;-87
2022/11/19 19:56:55;;;;;;;1.15;0.90;;;;;;;16.42;80.54;101162.06;20786393;28;20045;-87
2022/11/19 20:06:56;;;;;;;1.65;1.00;;;;;;;16.42;80.37;101158.53;20802302;28;20099;-87
2022/11/19 20:16:58;;;;;;;1.67;0.93;;;;;;;16.11;80.34;101085.69;20783780;28;20057;-86
2022/11/19 20:26:59;;;;;;;1.23;0.82;;;;;;;16.42;80.17;101137.03;20783869;28;20061;-87
2022/11/19 20:37:01;;;;;;;1.80;1.00;;;;;;;16.42;80.27;101134.34;20788887;28;20237;-87
2022/11/19 20:47:03;;;;;;;2.53;0.90;;;;;;;16.31;80.18;101116.38;20799596;28;20128;-87
2022/11/19 20:57:04;;;;;;;1.70;0.90;;;;;;;16.09;80.09;101080.44;20797025;28;20049;-87
2022/11/19 21:07:05;;;;;;;1.75;0.98;;;;;;;16.40;79.76;101121.00;20797812;28;20056;-86
2022/11/19 21:17:07;;;;;;;0.88;0.80;;;;;;;16.40;80.04;101121.00;20778526;28;20059;-87
2022/11/19 21:27:08;;;;;;;1.17;0.80;;;;;;;16.39;79.96;101119.28;20795400;28;20041;-86
2022/11/19 21:37:11;;;;;;;0.98;0.80;;;;;;;16.37;80.11;101097.06;20774739;28;20041;-87
2022/11/19 21:47:12;;;;;;;1.00;0.90;;;;;;;16.40;79.86;101087.94;20795009;28;20053;-87
2022/11/19 21:57:14;;;;;;;0.88;0.77;;;;;;;16.38;79.92;101075.47;20791633;28;20521;-87
2022/11/19 22:07:15;;;;;;;1.08;0.90;;;;;;;16.38;79.98;101082.66;20790721;28;20422;-84
2022/11/19 22:17:17;;;;;;;1.35;0.88;;;;;;;16.38;79.98;101080.84;20793776;28;20049;-87
2022/11/19 22:27:18;;;;;;;1.40;1.20;;;;;;;16.37;79.82;101084.50;20775677;28;20053;-87
2022/11/19 22:37:20;;;;;;;1.80;0.95;;;;;;;16.00;79.83;101016.69;20790490;28;20068;-87
2022/11/19 22:47:21;;;;;;;1.60;1.00;;;;;;;16.38;79.79;101071.91;20787743;28;20056;-86
2022/11/19 22:57:24;;;;;;;1.10;0.70;;;;;;;16.37;79.60;101067.50;20807685;28;20050;-87
2022/11/19 23:07:25;;;;;;;1.30;1.00;;;;;;;16.36;79.52;101045.19;20807436;28;20115;-87
2022/11/19 23:17:27;;;;;;;1.10;0.75;;;;;;;15.83;79.56;100961.63;20806507;28;20130;-87
2022/11/19 23:27:28;;;;;;;0.77;0.77;;;;;;;16.00;79.37;100996.09;20806360;28;20128;-87
2022/11/19 23:37:30;;;;;;;1.25;0.90;;;;;;;16.05;79.53;100999.25;20786273;28;20132;-87
2022/11/19 23:47:31;;;;;;;0.90;0.80;;;;;;;16.15;79.42;101047.75;20804671;28;20042;-86
2022/11/19 23:57:32;;;;;;;1.52;0.70;;;;;;;16.36;79.23;101065.81;20802657;28;20144;-84
